Time;durP1;ratioP1;P1;durP2;ratioP2;P2;SDS_P1;SDS_P2;PMS_P1;PMS_P2;Temp;Humidity;BMP_temperature;BMP_pressure;BME280_temperature;BME280_humidity;BME280_pressure;Samples;Min_cycle;Max_cycle;Signal;HPM_P1;HPM_P2
2021/12/29 00:02:10;;;;;;;4.60;3.30;;;15.60;51.90;14.70;99330.00;;;;5014342;28;20048;-68
2021/12/29 00:04:56;;;;;;;3.75;3.10;;;15.50;51.90;14.70;99329.00;;;;5029528;28;20037;-68
2021/12/29 00:07:43;;;;;;;4.03;3.30;;;15.50;51.90;14.70;99330.00;;;;5031111;28;20129;-68
2021/12/29 00:10:29;;;;;;;3.88;3.08;;;15.50;51.90;14.70;99331.00;;;;5015005;28;20043;-68
2021/12/29 00:13:16;;;;;;;5.43;3.58;;;15.60;52.00;14.70;99339.00;;;;5009310;28;20045;-68
2021/12/29 00:16:03;;;;;;;4.47;3.53;;;15.60;52.00;14.70;99340.00;;;;5026019;28;20041;-69
2021/12/29 00:18:49;;;;;;;3.92;3.63;;;15.60;52.00;14.70;99343.00;;;;5011997;28;20045;-68
2021/12/29 00:21:36;;;;;;;3.85;2.90;;;15.50;52.00;14.70;99340.00;;;;5012446;28;20533;-68
2021/12/29 00:24:23;;;;;;;4.20;3.20;;;15.60;52.00;14.70;99347.00;;;;5008668;28;20496;-68
2021/12/29 00:27:10;;;;;;;3.42;2.97;;;15.60;52.00;14.70;99346.00;;;;5012984;28;20628;-68
2021/12/29 00:29:56;;;;;;;3.90;2.83;;;15.60;52.10;14.70;99353.00;;;;5028480;28;20041;-68
2021/12/29 00:32:42;;;;;;;3.28;2.80;;;15.60;52.10;14.70;99352.00;;;;5025750;28;20276;-68
2021/12/29 00:35:29;;;;;;;3.85;2.75;;;15.60;52.10;14.70;99353.00;;;;5031938;28;20100;-68
2021/12/29 00:38:16;;;;;;;3.22;2.78;;;15.60;52.20;14.70;99359.00;;;;5008107;28;20462;-68
2021/12/29 00:41:02;;;;;;;2.78;2.53;;;15.60;52.20;14.70;99373.00;;;;4997773;28;20041;-68
2021/12/29 00:43:48;;;;;;;2.78;2.47;;;15.60;52.30;14.70;99372.00;;;;5012694;28;20065;-68
2021/12/29 00:46:38;;;;;;;2.78;2.40;;;15.50;52.30;14.70;99377.00;;;;5026527;28;20155;-68
2021/12/29 00:49:32;;;;;;;3.00;2.53;;;15.60;52.50;14.70;99381.00;;;;5025283;28;20053;-68
2021/12/29 00:52:18;;;;;;;2.63;2.33;;;15.60;52.40;14.70;99389.00;;;;4993600;28;20034;-68
2021/12/29 00:55:05;;;;;;;2.38;1.95;;;15.40;52.40;14.70;99398.00;;;;5027660;28;20100;-68
2021/12/29 00:57:51;;;;;;;2.42;2.10;;;15.60;52.50;14.70;99415.00;;;;4997590;28;20061;-68
2021/12/29 01:00:40;;;;;;;2.28;1.98;;;15.60;52.50;14.70;99422.00;;;;5026838;28;20069;-68
2021/12/29 01:03:36;;;;;;;2.03;1.80;;;15.60;52.60;14.70;99427.00;;;;5015690;28;20148;-68
2021/12/29 01:06:22;;;;;;;1.95;1.67;;;15.60;52.60;14.70;99441.00;;;;5002087;28;20119;-68
2021/12/29 01:09:08;;;;;;;1.60;1.50;;;15.60;52.60;14.70;99441.00;;;;5013314;28;20503;-68
2021/12/29 01:11:56;;;;;;;1.58;1.48;;;15.60;52.70;14.70;99436.00;;;;5029985;28;20044;-68
2021/12/29 01:14:51;;;;;;;;;;;15.60;52.70;14.70;99451.00;;;;5030110;28;20067;-68
2021/12/29 01:17:38;;;;;;;1.63;1.42;;;15.50;52.30;14.70;99469.00;;;;5025904;28;19923;-68
2021/12/29 01:20:24;;;;;;;1.30;1.20;;;15.50;52.50;14.70;99483.00;;;;5021439;28;20120;-68
2021/12/29 01:23:10;;;;;;;1.52;1.30;;;15.60;52.60;14.70;99485.00;;;;5003064;28;20052;-68
2021/12/29 01:25:56;;;;;;;2.13;1.48;;;15.60;52.70;14.70;99489.00;;;;5029362;28;20044;-68
2021/12/29 01:28:43;;;;;;;1.55;1.30;;;15.60;52.70;14.70;99502.00;;;;5026773;28;20047;-68
2021/12/29 01:31:30;;;;;;;3.22;1.25;;;15.60;52.70;14.70;99509.00;;;;5004010;28;20037;-68
2021/12/29 01:34:16;;;;;;;1.40;0.93;;;15.60;52.80;14.70;99515.00;;;;5012881;28;20038;-68
2021/12/29 01:37:03;;;;;;;2.30;1.15;;;15.60;52.80;14.70;99528.00;;;;5015220;28;20072;-68
2021/12/29 01:39:49;;;;;;;1.85;1.00;;;15.60;52.80;14.70;99533.00;;;;5030736;28;20039;-68
2021/12/29 01:42:35;;;;;;;1.90;1.27;;;15.50;52.80;14.70;99544.00;;;;5028493;28;20562;-68
2021/12/29 01:45:22;;;;;;;2.92;1.40;;;15.50;52.90;14.70;99562.00;;;;5015856;28;20120;-68
2021/12/29 01:48:08;;;;;;;1.55;1.33;;;15.50;52.90;14.70;99564.00;;;;5018938;28;20056;-68
2021/12/29 01:50:56;;;;;;;1.75;1.48;;;15.60;52.90;14.70;99562.00;;;;5014056;28;20545;-68
2021/12/29 01:53:48;;;;;;;;;;;15.60;53.00;14.70;99583.00;;;;5029124;28;20649;-68
2021/12/29 01:56:34;;;;;;;2.88;1.70;;;15.60;52.60;14.70;99592.00;;;;5017308;28;19913;-68
2021/12/29 01:59:21;;;;;;;1.63;1.50;;;15.60;52.80;14.70;99601.00;;;;5029439;28;20049;-68
2021/12/29 02:02:07;;;;;;;2.42;1.50;;;15.60;52.90;14.60;99602.00;;;;5018498;28;20041;-68
2021/12/29 02:04:53;;;;;;;2.72;1.65;;;15.50;52.90;14.70;99613.00;;;;5031062;28;20026;-68
2021/12/29 02:07:41;;;;;;;2.88;1.98;;;15.60;53.00;14.70;99619.00;;;;5030955;28;20399;-68
2021/12/29 02:10:31;;;;;;;2.15;1.50;;;15.50;53.00;14.70;99624.00;;;;5008210;28;20224;-68
2021/12/29 02:13:18;;;;;;;2.78;1.65;;;15.50;53.00;14.70;99616.00;;;;5031613;28;20147;-68
2021/12/29 02:16:04;;;;;;;2.95;1.80;;;15.50;53.00;14.70;99630.00;;;;5016529;28;20462;-68
2021/12/29 02:18:58;;;;;;;2.80;1.90;;;15.50;53.00;14.70;99627.00;;;;5030796;28;20041;-68
2021/12/29 02:21:53;;;;;;;2.60;1.63;;;15.50;53.00;14.70;99623.00;;;;5014875;28;20041;-68
2021/12/29 02:24:42;;;;;;;3.20;1.58;;;15.50;53.10;14.70;99636.00;;;;5028979;28;20128;-68
2021/12/29 02:27:28;;;;;;;2.50;1.60;;;15.50;53.10;14.70;99641.00;;;;5004146;28;20053;-68
2021/12/29 02:30:17;;;;;;;2.90;1.42;;;15.50;53.10;14.70;99635.00;;;;4991983;28;20042;-68
2021/12/29 02:33:05;;;;;;;2.55;1.50;;;15.50;53.10;14.70;99641.00;;;;5018610;28;20132;-68
2021/12/29 02:35:51;;;;;;;2.30;1.90;;;15.50;53.10;14.70;99647.00;;;;5032050;28;20068;-68
2021/12/29 02:38:44;;;;;;;1.92;1.42;;;15.50;53.10;14.70;99652.00;;;;5016591;28;20471;-68
2021/12/29 02:41:31;;;;;;;2.35;1.63;;;15.50;53.10;14.70;99658.00;;;;5034039;28;20040;-68
2021/12/29 02:44:27;;;;;;;2.30;1.65;;;15.60;53.10;14.70;99666.00;;;;5032256;28;21807;-68
2021/12/29 02:47:13;;;;;;;1.30;1.13;;;15.50;53.10;14.70;99666.00;;;;5016032;28;20103;-68
2021/12/29 02:49:59;;;;;;;1.83;1.25;;;15.60;53.10;14.70;99670.00;;;;5029250;28;20055;-68
2021/12/29 02:52:46;;;;;;;1.15;1.00;;;15.50;53.10;14.70;99681.00;;;;5006214;28;20037;-68
2021/12/29 02:55:32;;;;;;;1.60;1.20;;;15.60;53.10;14.70;99671.00;;;;5027316;28;20033;-68
2021/12/29 02:58:18;;;;;;;1.92;1.50;;;15.60;53.10;14.70;99673.00;;;;5025643;28;20059;-68
2021/12/29 03:01:08;;;;;;;3.53;1.20;;;15.60;53.10;14.70;99681.00;;;;5030548;28;20324;-68
2021/12/29 03:03:56;;;;;;;1.48;1.00;;;15.50;53.00;14.70;99682.00;;;;5007213;28;20533;-68
2021/12/29 03:06:42;;;;;;;1.58;1.00;;;15.60;53.00;14.70;99689.00;;;;5030210;28;20044;-68
2021/12/29 03:09:28;;;;;;;1.35;1.17;;;15.60;53.00;14.70;99686.00;;;;5030156;28;20044;-68
2021/12/29 03:12:14;;;;;;;2.53;0.95;;;15.60;53.00;14.70;99693.00;;;;5013638;28;20398;-68
2021/12/29 03:15:01;;;;;;;1.45;1.23;;;15.60;53.00;14.70;99697.00;;;;5031097;28;20045;-68
2021/12/29 03:17:47;;;;;;;1.20;1.00;;;15.60;52.90;14.70;99695.00;;;;5028257;28;20049;-68
2021/12/29 03:20:33;;;;;;;1.80;1.10;;;15.60;52.90;14.70;99705.00;;;;5014917;28;20430;-68
2021/12/29 03:23:20;;;;;;;2.45;1.15;;;15.60;53.00;14.70;99712.00;;;;5000050;28;20051;-68
2021/12/29 03:26:09;;;;;;;1.42;0.90;;;15.60;53.00;14.70;99707.00;;;;5028140;28;20045;-68
2021/12/29 03:28:57;;;;;;;1.70;1.05;;;15.60;53.00;14.70;99701.00;;;;5017691;28;20080;-68
2021/12/29 03:31:44;;;;;;;1.00;0.90;;;15.60;53.00;14.70;99707.00;;;;5032844;28;20040;-68
2021/12/29 03:34:30;;;;;;;1.65;1.23;;;15.60;53.00;14.70;99712.00;;;;5031019;28;20055;-68
2021/12/29 03:37:16;;;;;;;1.38;1.02;;;15.60;53.10;14.70;99714.00;;;;5032579;28;20471;-68
2021/12/29 03:40:04;;;;;;;1.55;0.77;;;15.60;53.10;14.70;99718.00;;;;5030824;28;20091;-68
2021/12/29 03:42:50;;;;;;;1.02;0.90;;;15.60;53.10;14.70;99726.00;;;;5029418;28;20053;-68
2021/12/29 03:45:38;;;;;;;1.25;0.90;;;15.60;53.10;14.70;99726.00;;;;5025688;28;20069;-68
2021/12/29 03:48:26;;;;;;;1.95;0.98;;;15.60;53.20;14.70;99729.00;;;;5012022;28;20470;-68
2021/12/29 03:51:12;;;;;;;0.85;0.80;;;15.60;53.20;14.70;99736.00;;;;5026383;28;20408;-68
2021/12/29 03:53:59;;;;;;;1.27;1.10;;;15.60;53.20;14.70;99742.00;;;;5029452;28;20044;-69
2021/12/29 03:56:45;;;;;;;1.42;0.85;;;15.60;53.30;14.70;99750.00;;;;5026436;28;20442;-68
2021/12/29 03:59:31;;;;;;;1.20;0.90;;;15.60;53.40;14.70;99737.00;;;;5028038;28;20448;-68
2021/12/29 04:02:17;;;;;;;1.77;0.90;;;15.60;53.40;14.70;99756.00;;;;5027893;28;20041;-68
2021/12/29 04:05:04;;;;;;;1.10;1.00;;;15.60;53.50;14.70;99764.00;;;;5026289;28;20037;-68
2021/12/29 04:07:53;;;;;;;1.15;0.80;;;15.60;53.40;14.70;99767.00;;;;5028963;28;20044;-68
2021/12/29 04:10:40;;;;;;;1.60;1.00;;;15.60;53.50;14.70;99768.00;;;;5015470;28;20038;-68
2021/12/29 04:13:26;;;;;;;1.20;1.10;;;15.60;53.50;14.70;99778.00;;;;5004468;28;20134;-68
2021/12/29 04:16:16;;;;;;;1.30;0.90;;;15.60;53.50;14.70;99771.00;;;;5025673;28;20474;-68
2021/12/29 04:19:06;;;;;;;1.65;1.13;;;15.60;53.60;14.70;99779.00;;;;5026173;28;20411;-68
2021/12/29 04:21:53;;;;;;;1.38;1.10;;;15.60;53.60;14.70;99779.00;;;;5012721;28;20369;-68
2021/12/29 04:24:39;;;;;;;1.10;1.00;;;15.60;53.80;14.70;99789.00;;;;5026752;28;20124;-68
2021/12/29 04:27:26;;;;;;;1.20;1.10;;;15.60;53.80;14.70;99788.00;;;;5028284;28;20098;-68
2021/12/29 04:30:12;;;;;;;1.40;1.30;;;15.70;53.80;14.70;99798.00;;;;5028558;28;20040;-68
2021/12/29 04:32:58;;;;;;;1.55;1.25;;;15.60;53.80;14.80;99807.00;;;;5026893;28;20030;-68
2021/12/29 04:35:45;;;;;;;2.08;1.50;;;15.60;53.80;14.80;99823.00;;;;5026003;28;20088;-68
2021/12/29 04:38:32;;;;;;;1.50;1.20;;;15.70;53.90;14.80;99809.00;;;;5031836;28;20041;-68
2021/12/29 04:41:18;;;;;;;1.30;1.00;;;15.70;53.90;14.80;99824.00;;;;5027273;28;20050;-69
2021/12/29 04:44:04;;;;;;;2.97;1.52;;;15.70;53.80;14.80;99837.00;;;;5029373;28;20045;-68
2021/12/29 04:46:51;;;;;;;1.77;1.63;;;15.70;53.80;14.80;99849.00;;;;5028476;28;20122;-68
2021/12/29 04:49:41;;;;;;;2.72;1.60;;;15.70;53.90;14.80;99851.00;;;;5012207;28;20033;-69
2021/12/29 04:52:29;;;;;;;2.50;1.55;;;15.70;53.80;14.80;99857.00;;;;5027770;28;20033;-68
2021/12/29 04:55:15;;;;;;;3.03;1.95;;;15.70;53.80;14.80;99849.00;;;;5004038;28;20053;-68
2021/12/29 04:58:01;;;;;;;3.60;2.08;;;15.70;53.80;14.80;99857.00;;;;5027924;28;20053;-68
2021/12/29 05:00:50;;;;;;;2.88;1.98;;;15.70;53.90;14.80;99863.00;;;;5013063;28;20041;-68
2021/12/29 05:03:37;;;;;;;3.35;2.40;;;15.70;53.90;14.80;99858.00;;;;5025598;28;20048;-68
2021/12/29 05:09:30;;;;;;;3.20;2.67;;;15.70;53.80;14.80;99877.00;;;;5030253;28;20038;-69
2021/12/29 05:12:16;;;;;;;4.13;2.53;;;15.80;53.90;14.80;99877.00;;;;5000543;28;20410;-69
2021/12/29 05:15:08;;;;;;;3.50;2.60;;;15.70;53.80;14.80;99874.00;;;;5008860;28;20206;-68
2021/12/29 05:17:56;;;;;;;3.40;2.63;;;15.70;53.80;14.80;99881.00;;;;5029077;28;20148;-68
2021/12/29 05:20:42;;;;;;;;;;;15.80;53.80;14.80;99886.00;;;;5032302;28;20063;-68
2021/12/29 05:23:29;;;;;;;3.80;2.90;;;15.80;53.50;14.80;99893.00;;;;5031565;28;20039;-69
2021/12/29 05:26:15;;;;;;;4.57;2.88;;;15.70;53.70;14.80;99896.00;;;;5015208;28;20037;-68
2021/12/29 05:29:01;;;;;;;3.25;2.65;;;15.80;53.70;14.80;99893.00;;;;5034475;28;20172;-68
2021/12/29 05:31:47;;;;;;;3.92;2.97;;;15.70;53.70;14.80;99897.00;;;;5032239;28;20087;-68
2021/12/29 05:34:34;;;;;;;4.07;2.97;;;15.80;53.70;14.80;99915.00;;;;5035490;28;20123;-68
2021/12/29 05:37:20;;;;;;;4.03;2.83;;;15.70;53.80;14.80;99913.00;;;;5032859;28;20055;-68
2021/12/29 05:40:08;;;;;;;3.85;3.03;;;15.80;53.90;14.80;99915.00;;;;5015044;28;20068;-69
2021/12/29 05:42:54;;;;;;;3.88;3.05;;;15.70;53.90;14.80;99902.00;;;;4999839;28;20091;-68
2021/12/29 05:45:41;;;;;;;4.80;3.10;;;15.70;53.80;14.80;99920.00;;;;5028490;28;20091;-68
2021/12/29 05:48:28;;;;;;;5.10;3.37;;;15.70;53.90;14.80;99924.00;;;;5032722;28;20111;-69
2021/12/29 05:51:14;;;;;;;4.45;3.17;;;15.70;54.00;14.80;99942.00;;;;5016183;28;20445;-68
2021/12/29 05:54:00;;;;;;;3.58;2.95;;;15.70;54.00;14.80;99945.00;;;;5031869;28;20643;-68
2021/12/29 05:56:46;;;;;;;3.30;3.00;;;15.70;53.90;14.80;99953.00;;;;5030525;28;20136;-68
2021/12/29 05:59:35;;;;;;;3.72;2.92;;;15.80;54.00;14.80;99959.00;;;;5030215;28;20081;-69
2021/12/29 06:02:21;;;;;;;3.88;3.47;;;15.70;53.90;14.80;99963.00;;;;5028251;28;20049;-68
2021/12/29 06:05:08;;;;;;;4.88;2.97;;;15.70;53.90;14.80;99967.00;;;;5012258;28;20045;-68
2021/12/29 06:07:54;;;;;;;4.28;2.90;;;15.80;54.00;14.80;99972.00;;;;5029306;28;20049;-68
2021/12/29 06:10:41;;;;;;;3.85;2.80;;;15.70;53.90;14.80;99970.00;;;;5028943;28;20041;-68
2021/12/29 06:13:27;;;;;;;5.22;3.30;;;15.80;54.00;14.80;99986.00;;;;5024566;28;20438;-68
2021/12/29 06:16:13;;;;;;;3.45;2.30;;;15.80;54.00;14.80;99980.00;;;;5028496;28;20040;-68
2021/12/29 06:18:59;;;;;;;3.55;2.70;;;15.80;54.00;14.80;99974.00;;;;5014190;28;20124;-68
2021/12/29 06:21:45;;;;;;;3.72;2.80;;;15.70;53.90;14.80;99988.00;;;;5027887;28;20406;-68
2021/12/29 06:24:31;;;;;;;4.07;2.65;;;15.80;54.00;14.80;99996.00;;;;5032352;28;20041;-69
2021/12/29 06:27:20;;;;;;;2.88;2.58;;;15.80;54.00;14.80;99996.00;;;;5029059;28;20490;-68
2021/12/29 06:30:08;;;;;;;4.47;2.65;;;15.70;54.00;14.80;99993.00;;;;5014501;28;20041;-68
2021/12/29 06:32:54;;;;;;;3.45;2.78;;;15.70;54.10;14.80;99992.00;;;;4996436;28;20051;-69
2021/12/29 06:35:41;;;;;;;2.85;2.35;;;15.80;54.10;14.80;100001.00;;;;5028931;28;20052;-68
2021/12/29 06:38:27;;;;;;;2.20;1.85;;;15.80;54.10;14.80;99994.00;;;;5028331;28;20041;-68
2021/12/29 06:41:13;;;;;;;3.03;2.50;;;15.70;54.00;14.80;100010.00;;;;5027215;28;20046;-68
2021/12/29 06:43:59;;;;;;;3.55;1.83;;;15.80;54.00;14.80;100005.00;;;;5027311;28;20037;-68
2021/12/29 06:46:45;;;;;;;4.75;2.33;;;15.80;54.10;14.80;100008.00;;;;5026073;28;20037;-68
2021/12/29 06:49:32;;;;;;;3.92;2.50;;;15.70;54.00;14.80;100016.00;;;;5006941;28;20063;-68
2021/12/29 06:52:18;;;;;;;3.83;2.38;;;15.80;54.00;14.80;100010.00;;;;5014008;28;20048;-68
2021/12/29 06:55:05;;;;;;;3.85;2.15;;;15.70;54.00;14.80;100016.00;;;;5018277;28;20042;-68
2021/12/29 06:57:51;;;;;;;2.50;2.10;;;15.80;54.10;14.80;100020.00;;;;4968582;28;1152443;-68
2021/12/29 07:00:37;;;;;;;3.30;2.60;;;15.80;54.00;14.80;100014.00;;;;5026687;28;20025;-68
2021/12/29 07:03:25;;;;;;;3.08;2.10;;;15.80;54.10;14.80;100017.00;;;;5028176;28;20037;-68
2021/12/29 07:06:12;;;;;;;4.00;2.10;;;15.80;54.00;14.80;100022.00;;;;5030387;28;20041;-68
2021/12/29 07:08:58;;;;;;;2.15;1.85;;;15.80;54.10;14.80;100031.00;;;;5029052;28;20073;-68
2021/12/29 07:11:45;;;;;;;3.08;2.17;;;15.80;54.10;14.80;100033.00;;;;5025380;28;20426;-68
2021/12/29 07:14:31;;;;;;;3.22;2.20;;;15.80;54.10;14.80;100049.00;;;;4999432;28;20037;-68
2021/12/29 07:17:17;;;;;;;4.80;2.42;;;15.70;54.10;14.80;100047.00;;;;5026731;28;20041;-68
2021/12/29 07:20:04;;;;;;;3.25;2.15;;;15.70;54.20;14.80;100053.00;;;;5002984;28;20091;-68
2021/12/29 07:22:50;;;;;;;2.80;1.95;;;15.70;54.20;14.80;100062.00;;;;5022479;28;20111;-68
2021/12/29 07:25:37;;;;;;;4.80;2.30;;;15.80;54.20;14.80;100067.00;;;;5006959;28;20439;-68
2021/12/29 07:28:23;;;;;;;2.03;1.55;;;15.80;54.20;14.80;100064.00;;;;5003138;28;20049;-68
2021/12/29 07:31:09;;;;;;;2.90;1.85;;;15.80;54.20;14.80;100063.00;;;;5026487;28;20037;-68
2021/12/29 07:33:55;;;;;;;2.83;1.63;;;15.80;54.20;14.80;100070.00;;;;5026474;28;20523;-68
2021/12/29 07:36:41;;;;;;;3.30;2.05;;;15.80;54.20;14.80;100079.00;;;;5010584;28;20287;-68
2021/12/29 07:39:28;;;;;;;2.95;1.80;;;15.80;54.20;14.80;100084.00;;;;5010902;28;20041;-68
2021/12/29 07:42:14;;;;;;;2.90;1.70;;;15.80;54.20;14.80;100079.00;;;;5008604;28;20834;-68
2021/12/29 07:45:01;;;;;;;2.63;1.80;;;15.80;54.30;14.80;100088.00;;;;5021087;28;20041;-68
2021/12/29 07:47:48;;;;;;;3.65;1.85;;;15.80;55.00;14.80;100111.00;;;;5011710;28;20041;-68
2021/12/29 07:50:35;;;;;;;2.88;1.45;;;15.80;54.20;14.80;100100.00;;;;5022491;28;20076;-68
2021/12/29 07:53:21;;;;;;;4.13;1.80;;;15.80;54.20;14.90;100116.00;;;;5026089;28;20048;-68
2021/12/29 07:56:07;;;;;;;4.38;1.88;;;15.80;54.20;14.90;100113.00;;;;5009828;28;20186;-68
2021/12/29 07:58:54;;;;;;;3.00;1.70;;;15.80;54.20;14.90;100103.00;;;;5021524;28;20053;-68
2021/12/29 08:01:40;;;;;;;2.53;1.85;;;15.80;54.20;14.80;100124.00;;;;5011117;28;20045;-68
2021/12/29 08:04:26;;;;;;;2.47;1.60;;;15.80;54.20;14.80;100129.00;;;;5028569;28;20041;-68
2021/12/29 08:07:14;;;;;;;3.30;1.83;;;15.80;54.20;14.90;100132.00;;;;5025126;28;20053;-68
2021/12/29 08:10:00;;;;;;;2.08;1.60;;;15.80;54.20;14.90;100138.00;;;;5027231;28;20039;-68
2021/12/29 08:12:46;;;;;;;2.58;1.80;;;15.80;54.20;14.90;100136.00;;;;5024354;28;20083;-68
2021/12/29 08:15:33;;;;;;;3.72;1.90;;;15.80;54.10;14.90;100138.00;;;;5024369;28;20074;-68
2021/12/29 08:18:19;;;;;;;3.92;1.85;;;15.80;54.20;14.90;100137.00;;;;5024257;28;20053;-68
2021/12/29 08:21:05;;;;;;;3.28;2.00;;;15.80;54.10;14.90;100137.00;;;;5018274;28;20045;-68
2021/12/29 08:23:52;;;;;;;4.07;1.95;;;15.80;54.20;14.90;100139.00;;;;5003575;28;20033;-68
2021/12/29 08:26:38;;;;;;;4.20;2.10;;;15.80;54.20;14.90;100144.00;;;;5022019;28;20037;-68
2021/12/29 08:29:24;;;;;;;4.07;2.10;;;15.80;54.20;14.90;100142.00;;;;5010619;28;20490;-68
2021/12/29 08:32:10;;;;;;;3.58;1.83;;;15.80;54.20;14.90;100153.00;;;;5029360;28;20072;-68
2021/12/29 08:34:56;;;;;;;4.50;2.55;;;15.80;54.20;14.90;100157.00;;;;5027023;28;20045;-68
2021/12/29 08:37:43;;;;;;;3.15;1.90;;;15.80;54.20;14.90;100172.00;;;;5026809;28;20455;-68
2021/12/29 08:40:29;;;;;;;3.72;1.95;;;15.80;54.20;14.90;100178.00;;;;5025072;28;20037;-68
2021/12/29 08:43:17;;;;;;;4.15;2.22;;;15.80;54.20;14.90;100176.00;;;;5025741;28;20075;-68
2021/12/29 08:46:03;;;;;;;4.55;2.53;;;15.80;54.90;14.90;100176.00;;;;5026287;28;20485;-70
2021/12/29 08:48:49;;;;;;;4.07;2.10;;;15.80;54.20;14.90;100173.00;;;;5029254;28;20049;-70
2021/12/29 08:51:40;;;;;;;5.68;2.45;;;15.90;54.30;14.90;100173.00;;;;5011689;28;20118;-70
2021/12/29 08:54:27;;;;;;;4.68;2.22;;;15.80;54.20;14.90;100177.00;;;;5014266;28;20053;-70
2021/12/29 08:57:13;;;;;;;3.92;2.25;;;15.90;54.20;14.90;100176.00;;;;5012731;28;20391;-68
2021/12/29 08:59:59;;;;;;;3.90;2.30;;;15.90;54.20;14.90;100173.00;;;;5027207;28;20045;-68
2021/12/29 09:02:45;;;;;;;4.90;2.15;;;15.80;54.10;14.90;100169.00;;;;5011702;28;20489;-68
2021/12/29 09:05:31;;;;;;;3.50;2.47;;;15.80;54.20;14.90;100161.00;;;;5014516;28;20041;-68
2021/12/29 09:08:17;;;;;;;4.80;2.50;;;15.80;54.80;14.90;100144.00;;;;5028364;28;20060;-68
2021/12/29 09:11:04;;;;;;;3.85;1.83;;;15.90;54.20;14.90;100147.00;;;;5027305;28;20045;-68
2021/12/29 09:13:50;;;;;;;4.18;2.10;;;15.80;54.10;14.90;100147.00;;;;4997336;28;20478;-67
2021/12/29 09:16:36;;;;;;;4.82;2.47;;;15.90;54.30;14.90;100152.00;;;;5031555;28;20532;-68
2021/12/29 09:19:23;;;;;;;3.58;2.30;;;15.90;54.30;14.90;100159.00;;;;5003096;28;20048;-68
2021/12/29 09:22:10;;;;;;;5.18;2.50;;;15.90;54.20;14.90;100153.00;;;;5026701;28;20045;-68
2021/12/29 09:24:57;;;;;;;7.25;2.70;;;15.90;54.20;14.90;100155.00;;;;5023436;28;20041;-67
2021/12/29 09:27:47;;;;;;;6.07;2.77;;;15.90;54.20;14.90;100161.00;;;;5012369;28;20072;-68
2021/12/29 09:30:34;;;;;;;4.90;2.50;;;15.80;54.10;14.90;100168.00;;;;5024296;28;20025;-68
2021/12/29 09:33:20;;;;;;;4.72;2.97;;;15.90;54.90;14.90;100172.00;;;;4998673;28;20096;-68
2021/12/29 09:36:07;;;;;;;4.88;2.45;;;15.90;54.20;14.90;100176.00;;;;5010211;28;20193;-68
2021/12/29 09:38:53;;;;;;;4.15;2.45;;;15.90;54.20;14.90;100187.00;;;;4997336;28;20038;-68
2021/12/29 09:41:39;;;;;;;5.13;2.75;;;15.90;54.30;14.90;100193.00;;;;5026339;28;20135;-68
2021/12/29 09:44:25;;;;;;;4.90;2.47;;;15.90;54.30;14.90;100195.00;;;;4998871;28;20049;-68
2021/12/29 09:47:11;;;;;;;3.15;2.10;;;15.90;54.20;14.90;100198.00;;;;5025760;28;20038;-68
2021/12/29 09:49:58;;;;;;;4.75;2.30;;;15.90;54.20;14.90;100208.00;;;;5011643;28;20061;-68
2021/12/29 09:52:44;;;;;;;3.10;2.20;;;15.90;54.20;14.90;100208.00;;;;5024448;28;20038;-68
2021/12/29 09:55:30;;;;;;;3.95;2.47;;;15.90;54.30;14.90;100215.00;;;;5015347;28;20068;-68
2021/12/29 09:58:17;;;;;;;5.28;2.13;;;15.90;54.30;14.90;100219.00;;;;5016291;28;20057;-67
2021/12/29 10:01:04;;;;;;;3.15;1.60;;;15.90;54.30;14.90;100213.00;;;;5007709;28;20048;-68
2021/12/29 10:03:51;;;;;;;5.47;2.40;;;15.90;54.30;14.90;100212.00;;;;5013818;28;20525;-68
2021/12/29 10:06:37;;;;;;;5.07;2.13;;;15.90;54.30;14.90;100205.00;;;;5009799;28;20258;-68
2021/12/29 10:09:23;;;;;;;4.45;2.08;;;15.90;54.30;14.90;100206.00;;;;5030193;28;20072;-68
2021/12/29 10:12:17;;;;;;;4.05;2.33;;;15.90;54.40;14.90;100200.00;;;;5004104;28;20056;-68
2021/12/29 10:15:05;;;;;;;3.80;2.22;;;15.90;54.40;15.00;100207.00;;;;5028115;28;20038;-69
2021/12/29 10:18:03;;;;;;;;;;;15.90;54.40;14.90;100210.00;;;;5014453;28;20044;-69
2021/12/29 10:20:57;;;;;;;3.15;2.00;;;15.90;54.10;15.00;100200.00;;;;5009490;28;19913;-69
2021/12/29 10:23:49;;;;;;;5.15;2.20;;;15.90;54.30;15.00;100212.00;;;;5013447;28;20117;-69
2021/12/29 10:26:43;;;;;;;4.95;2.20;;;15.90;54.30;15.00;100199.00;;;;5026635;28;20044;-69
2021/12/29 10:29:29;;;;;;;2.22;2.00;;;15.90;54.30;15.00;100203.00;;;;4999415;28;20088;-69
2021/12/29 10:32:22;;;;;;;4.60;1.85;;;15.90;54.30;15.00;100195.00;;;;5011031;28;20111;-69
2021/12/29 10:35:09;;;;;;;3.92;1.80;;;15.90;54.30;15.00;100204.00;;;;5007511;28;20052;-70
2021/12/29 10:38:14;;;;;;;3.35;1.73;;;15.90;54.30;15.00;100204.00;;;;5012580;28;20449;-69
2021/12/29 10:41:03;;;;;;;3.00;2.40;;;15.90;54.30;15.00;100213.00;;;;5012495;28;20041;-69
2021/12/29 10:44:00;;;;;;;3.60;1.90;;;15.90;54.30;15.00;100209.00;;;;5006995;28;20116;-69
2021/12/29 10:46:47;;;;;;;2.57;1.90;;;15.90;54.30;15.00;100212.00;;;;5009037;28;20547;-69
2021/12/29 10:49:33;;;;;;;3.83;2.10;;;15.90;54.20;15.00;100215.00;;;;5012979;28;20041;-69
2021/12/29 10:52:29;;;;;;;3.72;2.13;;;15.90;54.20;15.00;100218.00;;;;5012080;28;20064;-70
2021/12/29 10:55:32;;;;;;;3.58;2.22;;;15.90;54.40;15.00;100218.00;;;;5023610;28;20067;-69
2021/12/29 10:58:21;;;;;;;3.78;2.38;;;16.00;54.30;15.00;100213.00;;;;5012182;28;20054;-69
2021/12/29 11:01:12;;;;;;;2.53;1.60;;;16.00;54.30;15.00;100218.00;;;;4993882;28;20087;-69
2021/12/29 11:03:59;;;;;;;4.65;2.33;;;16.00;54.30;15.00;100233.00;;;;4986031;28;21153;-73
2021/12/29 11:06:46;;;;;;;3.20;2.08;;;16.00;54.30;15.00;100231.00;;;;5001847;28;20062;-69
2021/12/29 11:09:35;;;;;;;3.38;2.33;;;15.90;54.40;15.00;100230.00;;;;5003374;28;20046;-69
2021/12/29 11:12:23;;;;;;;3.63;2.03;;;16.00;54.40;15.00;100215.00;;;;5011707;28;20034;-69
2021/12/29 11:15:41;;;;;;;2.35;2.10;;;16.00;54.40;15.00;100211.00;;;;5022627;28;20236;-69
2021/12/29 11:18:49;;;;;;;2.35;1.80;;;15.90;54.40;15.00;100216.00;;;;5018954;28;20049;-70
2021/12/29 11:21:41;;;;;;;4.43;2.20;;;16.00;54.50;15.00;100223.00;;;;4998129;28;20054;-69
2021/12/29 11:24:27;;;;;;;2.78;1.90;;;15.90;54.50;15.00;100217.00;;;;4994667;28;20754;-69
2021/12/29 11:27:16;;;;;;;2.45;1.75;;;16.00;54.40;15.00;100218.00;;;;5022200;28;20065;-69
2021/12/29 11:30:09;;;;;;;5.10;2.10;;;16.00;54.50;15.00;100211.00;;;;5019004;28;20041;-69
2021/12/29 11:33:22;;;;;;;3.03;1.92;;;16.00;54.50;15.00;100200.00;;;;5017178;28;20037;-69
2021/12/29 11:36:08;;;;;;;2.38;1.58;;;16.00;54.50;15.00;100198.00;;;;5009097;28;20090;-70
2021/12/29 11:38:54;;;;;;;3.50;1.70;;;16.00;54.50;15.00;100203.00;;;;5011202;28;20579;-69
2021/12/29 11:41:42;;;;;;;3.47;2.08;;;16.00;54.50;15.00;100201.00;;;;5009176;28;20659;-69
2021/12/29 11:44:28;;;;;;;2.60;1.80;;;16.00;54.50;15.00;100200.00;;;;4996829;28;20080;-69
2021/12/29 11:47:15;;;;;;;4.00;1.92;;;16.00;54.50;15.00;100201.00;;;;5010886;28;20064;-69
2021/12/29 11:50:03;;;;;;;2.40;1.77;;;16.00;54.50;15.00;100222.00;;;;5024841;28;20041;-69
2021/12/29 11:53:09;;;;;;;2.00;1.67;;;16.00;54.50;15.00;100226.00;;;;4990977;28;20396;-69
2021/12/29 11:56:14;;;;;;;2.60;1.90;;;16.00;54.60;15.00;100228.00;;;;5015328;28;20128;-70
2021/12/29 11:59:11;;;;;;;2.15;1.77;;;16.00;54.60;15.00;100233.00;;;;5021621;28;20061;-70
2021/12/29 12:02:02;;;;;;;2.10;1.67;;;16.00;54.70;15.00;100242.00;;;;5027878;28;20041;-70
2021/12/29 12:05:03;;;;;;;2.63;1.90;;;16.00;54.60;15.00;100245.00;;;;5026218;28;20090;-70
2021/12/29 12:07:49;;;;;;;2.70;2.05;;;16.00;54.70;15.00;100242.00;;;;5026147;28;20084;-69
2021/12/29 12:10:37;;;;;;;4.22;2.33;;;16.00;54.60;15.00;100230.00;;;;5015053;28;20209;-70
2021/12/29 12:13:32;;;;;;;5.32;1.95;;;16.00;54.70;15.00;100230.00;;;;5013122;28;20033;-70
2021/12/29 12:16:19;;;;;;;2.00;1.73;;;16.00;54.70;15.00;100226.00;;;;5001289;28;20041;-69
2021/12/29 12:19:06;;;;;;;2.80;2.10;;;16.00;54.60;15.00;100244.00;;;;5000239;28;20048;-69
2021/12/29 12:22:13;;;;;;;3.17;1.83;;;16.00;54.70;15.00;100240.00;;;;5013740;28;20080;-69
2021/12/29 12:25:00;;;;;;;3.72;2.13;;;16.00;54.70;15.00;100247.00;;;;5025715;28;20045;-69
2021/12/29 12:27:50;;;;;;;3.08;1.70;;;16.00;54.70;15.00;100233.00;;;;5012499;28;20041;-69